Time;durP1;ratioP1;P1;durP2;ratioP2;P2;SDS_P1;SDS_P2;PMS_P1;PMS_P2;Temp;Humidity;BMP_temperature;BMP_pressure;BME280_temperature;BME280_humidity;BME280_pressure;Samples;Min_cycle;Max_cycle;Signal;HPM_P1;HPM_P2
2023/01/23 00:00:27;;;;;;;138.13;97.70;;;;;;;;;;5003531;28;20410;-72
2023/01/23 00:02:53;;;;;;;183.93;126.07;;;;;;;;;;4993327;28;20036;-71
2023/01/23 00:05:18;;;;;;;138.27;96.05;;;;;;;;;;5004736;28;20361;-72
2023/01/23 00:07:43;;;;;;;155.30;107.80;;;;;;;;;;5002253;28;20433;-72
2023/01/23 00:10:09;;;;;;;126.88;91.40;;;;;;;;;;4995308;28;20042;-73
2023/01/23 00:12:34;;;;;;;105.50;76.50;;;;;;;;;;4997329;28;20135;-75
2023/01/23 00:15:00;;;;;;;95.85;70.72;;;;;;;;;;4998814;28;20061;-74
2023/01/23 00:17:26;;;;;;;102.68;71.38;;;;;;;;;;4997490;28;20505;-74
2023/01/23 00:19:52;;;;;;;83.60;61.75;;;;;;;;;;5000777;28;20037;-74
2023/01/23 00:22:17;;;;;;;66.85;48.97;;;;;;;;;;5003629;28;20033;-74
2023/01/23 00:24:43;;;;;;;66.55;50.22;;;;;;;;;;5003902;28;20449;-74
2023/01/23 00:27:08;;;;;;;82.72;62.70;;;;;;;;;;5001070;28;20053;-74
2023/01/23 00:29:33;;;;;;;83.43;63.10;;;;;;;;;;4991463;28;20065;-75
2023/01/23 00:31:59;;;;;;;79.35;58.72;;;;;;;;;;4992728;28;20345;-74
2023/01/23 00:34:24;;;;;;;62.95;48.17;;;;;;;;;;5002744;28;20045;-72
2023/01/23 00:36:49;;;;;;;71.40;53.67;;;;;;;;;;4994338;28;20384;-75
2023/01/23 00:39:17;;;;;;;96.20;67.43;;;;;;;;;;5002752;28;20018;-73
2023/01/23 00:41:43;;;;;;;92.65;65.25;;;;;;;;;;4992720;28;20060;-74
2023/01/23 00:44:08;;;;;;;117.43;83.10;;;;;;;;;;4992217;28;20022;-75
2023/01/23 00:46:33;;;;;;;113.40;80.97;;;;;;;;;;4999690;28;20026;-74
2023/01/23 00:48:59;;;;;;;101.78;73.03;;;;;;;;;;4993019;28;20396;-74
2023/01/23 00:51:24;;;;;;;88.57;64.65;;;;;;;;;;4994479;28;20029;-75
2023/01/23 00:53:49;;;;;;;93.40;65.13;;;;;;;;;;4999829;28;20025;-73
2023/01/23 00:56:15;;;;;;;99.63;76.47;;;;;;;;;;5002554;28;20053;-72
2023/01/23 00:58:40;;;;;;;141.75;106.82;;;;;;;;;;5003563;28;20041;-72
2023/01/23 01:01:06;;;;;;;141.27;101.78;;;;;;;;;;4992628;28;20034;-72
2023/01/23 01:03:32;;;;;;;133.57;101.80;;;;;;;;;;5003885;28;20428;-72
2023/01/23 01:05:57;;;;;;;119.18;90.03;;;;;;;;;;5002848;28;20357;-73
2023/01/23 01:08:22;;;;;;;97.25;72.80;;;;;;;;;;4992205;28;20052;-73
2023/01/23 01:10:48;;;;;;;93.18;67.75;;;;;;;;;;5003493;28;20438;-72
2023/01/23 01:13:16;;;;;;;86.78;59.25;;;;;;;;;;5003348;28;20168;-73
2023/01/23 01:15:41;;;;;;;80.53;58.80;;;;;;;;;;4994847;28;20030;-71
2023/01/23 01:18:07;;;;;;;89.53;64.65;;;;;;;;;;5001726;28;20032;-71
2023/01/23 01:20:32;;;;;;;84.13;61.45;;;;;;;;;;5004387;28;20029;-73
2023/01/23 01:22:58;;;;;;;68.03;45.80;;;;;;;;;;4995551;28;20022;-73
2023/01/23 01:25:23;;;;;;;56.25;40.17;;;;;;;;;;4992547;28;20322;-75
2023/01/23 01:27:48;;;;;;;56.25;39.95;;;;;;;;;;5001222;28;20065;-73
2023/01/23 01:30:15;;;;;;;45.55;33.08;;;;;;;;;;4993470;28;20508;-72
2023/01/23 01:32:41;;;;;;;37.00;29.13;;;;;;;;;;4995025;28;20034;-71
2023/01/23 01:35:06;;;;;;;33.95;27.80;;;;;;;;;;5003931;28;20076;-75
2023/01/23 01:37:32;;;;;;;35.20;26.40;;;;;;;;;;4995989;28;20031;-70
2023/01/23 01:39:58;;;;;;;34.10;28.45;;;;;;;;;;4989776;28;20037;-73
2023/01/23 01:42:23;;;;;;;32.28;26.38;;;;;;;;;;5004053;28;20129;-71
2023/01/23 01:44:54;;;;;;;34.25;27.23;;;;;;;;;;5007316;28;20072;-74
2023/01/23 01:47:19;;;;;;;33.75;26.38;;;;;;;;;;5006267;28;20034;-73
2023/01/23 01:49:44;;;;;;;31.45;24.45;;;;;;;;;;4996186;28;20046;-73
2023/01/23 01:52:12;;;;;;;33.45;25.15;;;;;;;;;;5003191;28;20844;-72
2023/01/23 01:54:42;;;;;;;34.88;28.25;;;;;;;;;;4994073;28;20068;-72
2023/01/23 01:57:08;;;;;;;32.65;26.13;;;;;;;;;;5002094;28;20061;-73
2023/01/23 01:59:44;;;;;;;36.17;29.33;;;;;;;;;;4994859;28;20060;-73
2023/01/23 02:02:17;;;;;;;50.13;39.22;;;;;;;;;;5006658;28;20088;-71
2023/01/23 02:04:46;;;;;;;57.15;43.83;;;;;;;;;;5006221;28;20018;-74
2023/01/23 02:07:19;;;;;;;53.00;40.28;;;;;;;;;;5005992;28;20332;-71
2023/01/23 02:09:45;;;;;;;54.65;43.15;;;;;;;;;;5005957;28;20045;-71
2023/01/23 02:12:10;;;;;;;51.92;38.00;;;;;;;;;;5000976;28;20131;-72
2023/01/23 02:14:36;;;;;;;50.55;37.28;;;;;;;;;;4997202;28;20025;-72
2023/01/23 02:17:02;;;;;;;45.10;35.70;;;;;;;;;;5006668;28;20045;-71
2023/01/23 02:19:58;;;;;;;48.28;37.10;;;;;;;;;;5006914;28;20029;-72
2023/01/23 02:22:32;;;;;;;53.88;38.78;;;;;;;;;;4982203;28;20057;-76
2023/01/23 02:25:17;;;;;;;60.45;41.50;;;;;;;;;;4982111;28;20553;-72
2023/01/23 02:27:42;;;;;;;53.92;36.17;;;;;;;;;;4975345;28;20096;-72
2023/01/23 02:30:08;;;;;;;43.88;31.83;;;;;;;;;;4977465;28;20125;-71
2023/01/23 02:32:34;;;;;;;69.53;50.50;;;;;;;;;;4977071;28;21420;-73
2023/01/23 02:35:02;;;;;;;79.78;61.00;;;;;;;;;;4954908;28;20470;-73
2023/01/23 02:37:30;;;;;;;149.75;108.65;;;;;;;;;;4982957;28;20494;-74
2023/01/23 02:39:56;;;;;;;121.80;88.90;;;;;;;;;;4981831;28;20444;-73
2023/01/23 02:42:22;;;;;;;102.97;77.68;;;;;;;;;;4982090;28;20046;-73
2023/01/23 02:44:48;;;;;;;79.38;60.38;;;;;;;;;;4970634;28;20034;-75
2023/01/23 02:47:14;;;;;;;65.70;51.00;;;;;;;;;;4980711;28;20061;-73
2023/01/23 02:49:39;;;;;;;74.03;54.50;;;;;;;;;;4981634;28;20058;-75
2023/01/23 02:52:05;;;;;;;104.68;75.53;;;;;;;;;;4980973;28;20053;-73
2023/01/23 02:54:31;;;;;;;87.18;63.67;;;;;;;;;;4976164;28;20030;-73
2023/01/23 02:56:56;;;;;;;75.28;54.90;;;;;;;;;;4975801;28;20101;-73
2023/01/23 03:02:06;;;;;;;88.55;66.05;;;;;;;;;;4995043;28;20171;-75
2023/01/23 03:04:32;;;;;;;89.22;62.65;;;;;;;;;;5003268;28;20481;-73
2023/01/23 03:06:58;;;;;;;77.53;60.50;;;;;;;;;;5004236;28;20037;-73
2023/01/23 03:09:24;;;;;;;78.20;62.97;;;;;;;;;;5004792;28;20047;-75
2023/01/23 03:11:49;;;;;;;78.38;60.90;;;;;;;;;;5005787;28;20449;-73
2023/01/23 03:14:16;;;;;;;73.65;54.92;;;;;;;;;;5005480;28;20025;-73
2023/01/23 03:16:42;;;;;;;69.80;53.63;;;;;;;;;;4994393;28;20422;-73
2023/01/23 03:19:08;;;;;;;80.00;58.40;;;;;;;;;;4994611;28;20022;-75
2023/01/23 03:21:38;;;;;;;71.57;55.58;;;;;;;;;;5003667;28;20041;-76
2023/01/23 03:24:04;;;;;;;77.43;56.38;;;;;;;;;;5004144;28;20049;-73
2023/01/23 03:26:30;;;;;;;67.93;51.22;;;;;;;;;;5005213;28;20441;-73
2023/01/23 03:31:39;;;;;;;88.28;64.32;;;;;;;;;;5003537;28;21107;-72
2023/01/23 03:34:04;;;;;;;83.70;62.33;;;;;;;;;;4992074;28;20017;-72
2023/01/23 03:36:29;;;;;;;70.97;53.03;;;;;;;;;;4990141;28;20046;-74
2023/01/23 03:41:40;;;;;;;65.53;50.92;;;;;;;;;;4999377;28;20066;-72
2023/01/23 03:44:06;;;;;;;69.05;52.33;;;;;;;;;;5004510;28;20034;-72
2023/01/23 03:46:31;;;;;;;59.42;46.10;;;;;;;;;;5004447;28;20033;-73
2023/01/23 03:48:57;;;;;;;55.55;44.13;;;;;;;;;;4997423;28;20042;-72
2023/01/23 03:51:22;;;;;;;50.90;38.90;;;;;;;;;;4998980;28;20033;-76
2023/01/23 03:53:47;;;;;;;51.63;39.42;;;;;;;;;;5003719;28;20022;-73
2023/01/23 03:56:13;;;;;;;53.97;40.53;;;;;;;;;;5005166;28;20018;-73
2023/01/23 03:58:38;;;;;;;56.22;42.90;;;;;;;;;;5004088;28;20026;-75
2023/01/23 04:01:07;;;;;;;50.97;38.97;;;;;;;;;;5004496;28;20660;-73
2023/01/23 04:03:32;;;;;;;51.43;39.23;;;;;;;;;;5000536;28;20025;-74
2023/01/23 04:05:58;;;;;;;55.92;42.35;;;;;;;;;;4991178;28;20029;-75
2023/01/23 04:08:23;;;;;;;51.92;38.80;;;;;;;;;;4998041;28;20033;-75
2023/01/23 04:10:48;;;;;;;54.35;41.92;;;;;;;;;;5003703;28;20037;-75
2023/01/23 04:13:14;;;;;;;52.80;41.50;;;;;;;;;;5003346;28;20124;-73
2023/01/23 04:15:39;;;;;;;55.25;43.80;;;;;;;;;;5003317;28;20030;-74
2023/01/23 04:18:04;;;;;;;62.42;48.70;;;;;;;;;;5004950;28;20120;-73
2023/01/23 04:20:29;;;;;;;75.40;56.80;;;;;;;;;;4994757;28;20242;-72
2023/01/23 04:22:55;;;;;;;73.88;53.90;;;;;;;;;;4995267;28;20034;-73
2023/01/23 04:25:21;;;;;;;69.82;53.00;;;;;;;;;;4994002;28;20126;-72
2023/01/23 04:27:46;;;;;;;63.55;48.83;;;;;;;;;;5003605;28;20068;-74
2023/01/23 04:30:11;;;;;;;61.90;45.65;;;;;;;;;;5004323;28;20068;-75
2023/01/23 04:32:37;;;;;;;56.53;42.45;;;;;;;;;;4998441;28;20369;-73
2023/01/23 04:35:02;;;;;;;55.30;41.80;;;;;;;;;;4996583;28;20030;-75
2023/01/23 04:37:27;;;;;;;62.17;47.63;;;;;;;;;;4992935;28;20065;-73
2023/01/23 04:39:53;;;;;;;66.47;51.10;;;;;;;;;;5003701;28;20041;-72
2023/01/23 04:42:18;;;;;;;71.95;55.38;;;;;;;;;;4993030;28;20050;-72
2023/01/23 04:44:43;;;;;;;66.68;53.08;;;;;;;;;;5003113;28;20022;-73
2023/01/23 04:47:08;;;;;;;65.93;47.45;;;;;;;;;;4990346;28;20498;-72
2023/01/23 04:49:34;;;;;;;61.97;44.67;;;;;;;;;;4989020;28;20457;-72
2023/01/23 04:51:59;;;;;;;63.50;47.22;;;;;;;;;;4989328;28;20045;-72
2023/01/23 04:54:24;;;;;;;58.25;42.35;;;;;;;;;;4990329;28;20088;-72
2023/01/23 04:56:50;;;;;;;63.33;47.33;;;;;;;;;;4989274;28;20034;-72
2023/01/23 04:59:15;;;;;;;58.63;44.13;;;;;;;;;;4990363;28;20021;-75
2023/01/23 05:01:41;;;;;;;60.95;43.63;;;;;;;;;;5000188;28;20345;-73
2023/01/23 05:04:06;;;;;;;43.53;32.63;;;;;;;;;;5004729;28;20057;-75
2023/01/23 05:06:31;;;;;;;44.85;33.05;;;;;;;;;;5004762;28;20065;-74
2023/01/23 05:08:57;;;;;;;49.38;34.00;;;;;;;;;;5003970;28;20029;-72
2023/01/23 05:11:22;;;;;;;52.65;34.75;;;;;;;;;;5002847;28;20356;-73
2023/01/23 05:13:48;;;;;;;45.47;34.80;;;;;;;;;;5002839;28;20025;-73
2023/01/23 05:16:13;;;;;;;64.32;48.50;;;;;;;;;;5000119;28;20365;-73
2023/01/23 05:18:39;;;;;;;72.03;57.72;;;;;;;;;;4991418;28;20442;-73
2023/01/23 05:21:04;;;;;;;98.55;74.03;;;;;;;;;;5004264;28;20452;-76
2023/01/23 05:23:29;;;;;;;77.85;57.70;;;;;;;;;;5004039;28;20017;-72
2023/01/23 05:25:58;;;;;;;81.78;57.88;;;;;;;;;;5006135;28;20065;-74
2023/01/23 05:28:23;;;;;;;91.38;63.97;;;;;;;;;;5003393;28;20056;-73
2023/01/23 05:30:48;;;;;;;193.80;144.13;;;;;;;;;;5002752;28;20034;-73
2023/01/23 05:33:13;;;;;;;114.03;83.22;;;;;;;;;;5002626;28;20029;-72
2023/01/23 05:35:39;;;;;;;76.40;58.22;;;;;;;;;;5003598;28;20033;-72
2023/01/23 05:38:04;;;;;;;175.15;132.52;;;;;;;;;;4993946;28;20029;-73
2023/01/23 05:40:30;;;;;;;116.75;89.78;;;;;;;;;;4999507;28;20048;-73
2023/01/23 05:42:55;;;;;;;88.53;68.38;;;;;;;;;;5002871;28;20092;-79
2023/01/23 05:45:21;;;;;;;98.97;76.93;;;;;;;;;;5004495;28;20121;-76
2023/01/23 05:47:46;;;;;;;404.20;294.20;;;;;;;;;;4990392;28;20026;-74
2023/01/23 05:50:18;;;;;;;273.83;194.27;;;;;;;;;;4989072;28;20029;-74
2023/01/23 05:52:44;;;;;;;208.60;152.00;;;;;;;;;;4990712;28;20802;-74
2023/01/23 05:55:09;;;;;;;439.15;280.48;;;;;;;;;;5003896;28;20101;-74
2023/01/23 05:57:35;;;;;;;171.30;117.30;;;;;;;;;;4998053;28;20453;-73
2023/01/23 06:00:00;;;;;;;546.63;283.77;;;;;;;;;;4990334;28;20034;-75
2023/01/23 06:02:26;;;;;;;448.95;245.85;;;;;;;;;;4999159;28;20026;-73
2023/01/23 06:04:51;;;;;;;792.92;422.08;;;;;;;;;;4994296;28;20428;-79
2023/01/23 06:07:17;;;;;;;751.95;436.80;;;;;;;;;;4992628;28;20026;-77
2023/01/23 06:09:42;;;;;;;288.77;153.77;;;;;;;;;;4988906;28;20033;-74
2023/01/23 06:12:08;;;;;;;271.65;130.57;;;;;;;;;;4989921;28;20026;-73
2023/01/23 06:14:34;;;;;;;972.97;448.95;;;;;;;;;;4999700;28;20030;-73
2023/01/23 06:16:59;;;;;;;790.63;412.38;;;;;;;;;;5005201;28;20029;-74
2023/01/23 06:19:25;;;;;;;795.00;445.58;;;;;;;;;;5001939;28;20044;-77
2023/01/23 06:21:50;;;;;;;226.30;137.05;;;;;;;;;;4992897;28;20061;-76
2023/01/23 06:24:15;;;;;;;531.00;326.48;;;;;;;;;;5001486;28;20030;-73
2023/01/23 06:26:41;;;;;;;897.97;576.42;;;;;;;;;;5004150;28;20045;-72
2023/01/23 06:29:06;;;;;;;664.78;422.85;;;;;;;;;;5006242;28;20033;-73
2023/01/23 06:31:31;;;;;;;717.17;449.55;;;;;;;;;;5003922;28;20042;-73
2023/01/23 06:33:57;;;;;;;362.63;207.95;;;;;;;;;;5006645;28;20038;-74
2023/01/23 06:36:23;;;;;;;219.38;136.77;;;;;;;;;;5005537;28;20415;-71
2023/01/23 06:38:48;;;;;;;186.13;122.13;;;;;;;;;;5003559;28;20032;-75
2023/01/23 06:41:14;;;;;;;254.30;144.85;;;;;;;;;;5004354;28;20065;-75
2023/01/23 06:43:39;;;;;;;134.57;95.72;;;;;;;;;;5008996;28;20072;-76
2023/01/23 06:46:06;;;;;;;206.82;114.93;;;;;;;;;;5003171;28;20036;-72
2023/01/23 06:48:31;;;;;;;472.67;225.73;;;;;;;;;;4998392;28;20034;-72
2023/01/23 06:50:58;;;;;;;270.15;127.53;;;;;;;;;;5007507;28;20038;-74
2023/01/23 06:53:23;;;;;;;507.73;272.67;;;;;;;;;;5006387;28;20054;-74
2023/01/23 06:55:49;;;;;;;215.85;116.57;;;;;;;;;;5006266;28;20034;-75
2023/01/23 06:58:14;;;;;;;209.55;114.45;;;;;;;;;;5005522;28;20044;-75
2023/01/23 07:00:43;;;;;;;155.48;84.90;;;;;;;;;;5007509;28;20030;-73
2023/01/23 07:03:09;;;;;;;71.25;44.60;;;;;;;;;;5005850;28;20026;-76
2023/01/23 07:05:36;;;;;;;49.85;31.23;;;;;;;;;;5006230;28;20113;-76
2023/01/23 07:08:01;;;;;;;154.60;79.68;;;;;;;;;;5007621;28;20049;-74
2023/01/23 07:10:26;;;;;;;105.82;57.95;;;;;;;;;;5006602;28;20049;-74
2023/01/23 07:12:52;;;;;;;216.25;105.60;;;;;;;;;;5005092;28;20030;-74
2023/01/23 07:15:17;;;;;;;292.80;133.25;;;;;;;;;;5004515;28;20021;-75
2023/01/23 07:17:42;;;;;;;422.02;201.73;;;;;;;;;;5005990;28;20109;-74
2023/01/23 07:20:08;;;;;;;130.73;64.53;;;;;;;;;;5005686;28;20111;-74
2023/01/23 07:22:34;;;;;;;56.33;33.47;;;;;;;;;;5006205;28;20029;-74
2023/01/23 07:24:59;;;;;;;16.65;9.95;;;;;;;;;;5005715;28;20034;-77
2023/01/23 07:27:24;;;;;;;37.42;18.52;;;;;;;;;;5005833;28;20037;-77
2023/01/23 07:29:50;;;;;;;29.38;16.38;;;;;;;;;;5005936;28;20029;-74
2023/01/23 07:32:15;;;;;;;75.35;37.22;;;;;;;;;;5004100;28;20045;-74
2023/01/23 07:34:41;;;;;;;41.00;22.10;;;;;;;;;;5005365;28;20025;-75
2023/01/23 07:37:07;;;;;;;32.25;17.42;;;;;;;;;;5005269;28;20148;-74
2023/01/23 07:39:32;;;;;;;28.45;16.63;;;;;;;;;;5005678;28;20048;-77
2023/01/23 07:41:57;;;;;;;63.97;40.28;;;;;;;;;;5005099;28;20296;-74
2023/01/23 07:44:22;;;;;;;39.40;24.98;;;;;;;;;;5005243;28;20033;-75
2023/01/23 07:46:48;;;;;;;38.05;24.13;;;;;;;;;;5004361;28;20026;-78
2023/01/23 07:49:13;;;;;;;14.48;11.40;;;;;;;;;;5005109;28;20048;-75
2023/01/23 07:51:39;;;;;;;26.73;20.38;;;;;;;;;;5005207;28;20446;-75
2023/01/23 07:54:05;;;;;;;32.72;20.55;;;;;;;;;;5004714;28;20072;-75
2023/01/23 07:56:31;;;;;;;18.67;11.27;;;;;;;;;;5004803;28;20438;-74
2023/01/23 07:58:57;;;;;;;9.23;6.75;;;;;;;;;;5005075;28;20018;-74
2023/01/23 08:01:22;;;;;;;8.98;7.15;;;;;;;;;;5005153;28;20056;-75
2023/01/23 08:03:47;;;;;;;33.03;18.10;;;;;;;;;;5006053;28;20108;-74
2023/01/23 08:06:13;;;;;;;18.83;11.48;;;;;;;;;;5005754;28;20034;-73
2023/01/23 08:08:38;;;;;;;74.35;36.67;;;;;;;;;;5003881;28;20038;-76
2023/01/23 08:11:04;;;;;;;34.65;17.35;;;;;;;;;;5005443;28;20362;-73
2023/01/23 08:13:29;;;;;;;29.10;16.05;;;;;;;;;;5004367;28;20057;-74
2023/01/23 08:15:56;;;;;;;56.90;28.80;;;;;;;;;;5005766;28;20030;-73
2023/01/23 08:18:21;;;;;;;30.55;14.10;;;;;;;;;;5003841;28;20111;-73
2023/01/23 08:20:53;;;;;;;45.05;22.42;;;;;;;;;;5004401;28;20422;-78
2023/01/23 08:23:19;;;;;;;28.63;15.10;;;;;;;;;;5003602;28;20721;-76
2023/01/23 08:25:44;;;;;;;39.95;21.05;;;;;;;;;;5003468;28;20025;-74
2023/01/23 08:28:09;;;;;;;31.90;14.25;;;;;;;;;;5002491;28;20441;-74
2023/01/23 08:30:35;;;;;;;19.88;10.55;;;;;;;;;;5004327;28;20061;-74
2023/01/23 08:33:03;;;;;;;11.90;7.50;;;;;;;;;;5005097;28;20501;-74
2023/01/23 08:35:29;;;;;;;216.15;94.10;;;;;;;;;;5004739;28;20026;-74
2023/01/23 08:37:54;;;;;;;25.75;14.55;;;;;;;;;;5003656;28;20361;-73
2023/01/23 08:40:20;;;;;;;21.00;12.85;;;;;;;;;;5005096;28;20030;-73
2023/01/23 08:42:45;;;;;;;13.60;8.40;;;;;;;;;;5005211;28;20054;-73
2023/01/23 08:45:10;;;;;;;20.55;11.15;;;;;;;;;;5003068;28;20022;-73
2023/01/23 08:47:36;;;;;;;39.40;17.77;;;;;;;;;;5003500;28;20044;-72
2023/01/23 08:50:03;;;;;;;10.50;4.88;;;;;;;;;;5002942;28;20353;-75
2023/01/23 08:52:28;;;;;;;18.70;9.95;;;;;;;;;;5004055;28;20060;-75
2023/01/23 08:54:54;;;;;;;28.95;15.85;;;;;;;;;;5004742;28;20504;-73
2023/01/23 08:57:19;;;;;;;17.00;9.88;;;;;;;;;;5003492;28;20128;-75
2023/01/23 08:59:44;;;;;;;16.70;9.45;;;;;;;;;;5003276;28;20539;-73
2023/01/23 09:02:11;;;;;;;23.98;14.48;;;;;;;;;;5004065;28;20033;-75
2023/01/23 09:04:36;;;;;;;20.05;13.20;;;;;;;;;;5004350;28;20321;-74
2023/01/23 09:07:02;;;;;;;36.20;20.75;;;;;;;;;;5003511;28;20022;-77
2023/01/23 09:09:28;;;;;;;26.30;17.67;;;;;;;;;;5004377;28;20080;-74
2023/01/23 09:11:54;;;;;;;35.35;23.48;;;;;;;;;;5003366;28;20113;-73
2023/01/23 09:14:19;;;;;;;18.33;12.07;;;;;;;;;;5003431;28;20437;-76
2023/01/23 09:16:44;;;;;;;36.78;24.15;;;;;;;;;;5004397;28;20024;-73
2023/01/23 09:19:11;;;;;;;36.40;22.90;;;;;;;;;;5003710;28;20100;-74
2023/01/23 09:21:37;;;;;;;14.75;11.18;;;;;;;;;;5003175;28;20041;-74
2023/01/23 09:24:02;;;;;;;14.88;12.57;;;;;;;;;;5004355;28;20325;-75
2023/01/23 09:26:27;;;;;;;12.30;8.82;;;;;;;;;;5003271;28;20380;-73
2023/01/23 09:28:53;;;;;;;17.15;14.73;;;;;;;;;;5003308;28;20084;-72
2023/01/23 09:31:18;;;;;;;20.23;14.00;;;;;;;;;;5004148;28;20460;-74
2023/01/23 09:33:44;;;;;;;37.45;25.88;;;;;;;;;;5003636;28;20032;-73
2023/01/23 09:36:09;;;;;;;9.75;8.10;;;;;;;;;;5003483;28;20033;-77
2023/01/23 09:38:35;;;;;;;9.57;7.72;;;;;;;;;;5004124;28;20030;-72
2023/01/23 09:41:06;;;;;;;9.63;8.20;;;;;;;;;;5004241;28;20109;-74
2023/01/23 09:43:31;;;;;;;12.90;9.20;;;;;;;;;;5004721;28;20157;-73
2023/01/23 09:46:09;;;;;;;10.38;7.72;;;;;;;;;;5003564;28;20129;-76
2023/01/23 09:48:51;;;;;;;6.28;5.32;;;;;;;;;;5003074;28;20041;-73
2023/01/23 09:51:34;;;;;;;10.23;8.98;;;;;;;;;;5003739;28;20450;-75
2023/01/23 09:54:03;;;;;;;14.25;10.40;;;;;;;;;;5003308;28;20084;-77
2023/01/23 09:56:30;;;;;;;23.50;17.58;;;;;;;;;;5003687;28;20026;-73
2023/01/23 09:59:13;;;;;;;16.45;11.70;;;;;;;;;;5002909;28;20026;-73
2023/01/23 10:01:39;;;;;;;19.73;13.32;;;;;;;;;;5004871;28;20052;-73
2023/01/23 10:04:04;;;;;;;25.02;16.85;;;;;;;;;;5006947;28;20113;-74
2023/01/23 10:06:31;;;;;;;46.08;27.20;;;;;;;;;;5006523;28;20121;-73
2023/01/23 10:09:03;;;;;;;39.28;25.70;;;;;;;;;;5007329;28;20318;-72
2023/01/23 10:11:28;;;;;;;33.22;21.45;;;;;;;;;;5005609;28;20026;-74
2023/01/23 10:13:57;;;;;;;16.13;11.77;;;;;;;;;;5006593;28;21098;-78
2023/01/23 10:16:40;;;;;;;22.95;15.00;;;;;;;;;;5006668;28;20034;-75
2023/01/23 10:19:13;;;;;;;13.15;9.95;;;;;;;;;;5006230;28;20014;-76
2023/01/23 10:21:54;;;;;;;31.10;19.48;;;;;;;;;;5006845;28;20115;-77
2023/01/23 10:24:45;;;;;;;34.17;26.67;;;;;;;;;;5006789;28;20030;-74
2023/01/23 10:27:19;;;;;;;16.70;13.25;;;;;;;;;;5006988;28;20030;-74
2023/01/23 10:30:11;;;;;;;9.93;8.90;;;;;;;;;;5006625;28;20111;-75
2023/01/23 10:32:44;;;;;;;23.02;17.23;;;;;;;;;;5004521;28;20100;-74
2023/01/23 10:35:17;;;;;;;7.03;5.10;;;;;;;;;;5007101;28;20128;-75
2023/01/23 10:37:45;;;;;;;6.00;4.85;;;;;;;;;;5007183;28;20095;-74
2023/01/23 10:40:10;;;;;;;57.65;42.78;;;;;;;;;;5021553;28;20482;-75
2023/01/23 10:42:36;;;;;;;21.15;15.15;;;;;;;;;;5006682;28;20042;-75
2023/01/23 10:45:01;;;;;;;18.20;15.75;;;;;;;;;;5005921;28;20084;-75
2023/01/23 10:47:41;;;;;;;8.93;8.05;;;;;;;;;;5006041;28;20022;-74
2023/01/23 10:50:06;;;;;;;6.13;5.63;;;;;;;;;;5004887;28;20095;-76
2023/01/23 10:52:42;;;;;;;5.25;4.60;;;;;;;;;;5006993;28;20057;-74
2023/01/23 10:55:19;;;;;;;9.57;7.30;;;;;;;;;;5006891;28;20034;-76
2023/01/23 10:57:47;;;;;;;7.45;6.40;;;;;;;;;;5008350;28;20426;-77
2023/01/23 11:00:31;;;;;;;7.30;6.35;;;;;;;;;;5007196;28;20048;-73
2023/01/23 11:03:16;;;;;;;9.27;7.25;;;;;;;;;;5006618;28;20109;-72
2023/01/23 11:05:44;;;;;;;6.80;5.75;;;;;;;;;;5007709;28;20026;-76
2023/01/23 11:08:29;;;;;;;7.03;5.90;;;;;;;;;;5005955;28;20509;-74
2023/01/23 11:11:14;;;;;;;7.15;6.43;;;;;;;;;;5005696;28;20030;-75
2023/01/23 11:13:40;;;;;;;12.13;8.75;;;;;;;;;;5004329;28;20068;-73
2023/01/23 11:16:05;;;;;;;5.85;5.25;;;;;;;;;;5005059;28;20029;-74
2023/01/23 11:18:32;;;;;;;10.45;7.35;;;;;;;;;;5005793;28;20088;-73
2023/01/23 11:20:58;;;;;;;5.65;4.45;;;;;;;;;;5006241;28;20029;-74
2023/01/23 11:23:24;;;;;;;7.82;5.82;;;;;;;;;;5005381;28;20029;-74
2023/01/23 11:25:50;;;;;;;14.05;9.30;;;;;;;;;;5008393;28;20034;-75
2023/01/23 11:28:23;;;;;;;10.20;7.65;;;;;;;;;;5006167;28;20034;-73
2023/01/23 11:30:51;;;;;;;25.55;17.67;;;;;;;;;;5004950;28;20457;-73
2023/01/23 11:33:35;;;;;;;28.50;19.20;;;;;;;;;;5005969;28;20040;-73
2023/01/23 11:36:15;;;;;;;12.65;9.00;;;;;;;;;;5005012;28;20651;-74
2023/01/23 11:38:43;;;;;;;7.85;6.28;;;;;;;;;;5004668;28;20029;-76
2023/01/23 11:41:12;;;;;;;14.63;11.52;;;;;;;;;;5005381;28;20034;-73
2023/01/23 11:43:38;;;;;;;14.45;10.02;;;;;;;;;;5004218;28;20493;-74
2023/01/23 11:46:19;;;;;;;17.85;13.13;;;;;;;;;;5005521;28;20045;-74
2023/01/23 11:48:58;;;;;;;8.80;6.70;;;;;;;;;;5004359;28;20022;-76
2023/01/23 11:51:40;;;;;;;6.13;5.22;;;;;;;;;;5003993;28;20036;-74
2023/01/23 11:54:09;;;;;;;7.00;6.30;;;;;;;;;;5004819;28;20472;-73
2023/01/23 11:56:43;;;;;;;15.23;11.85;;;;;;;;;;5004623;28;20026;-75
2023/01/23 11:59:19;;;;;;;30.10;21.60;;;;;;;;;;5004813;28;20018;-73
2023/01/23 12:02:04;;;;;;;15.35;11.63;;;;;;;;;;5004737;28;20029;-74
2023/01/23 12:04:47;;;;;;;23.67;18.60;;;;;;;;;;5005141;28;20034;-73
2023/01/23 12:07:20;;;;;;;8.40;6.45;;;;;;;;;;5006292;28;20052;-74
2023/01/23 12:10:05;;;;;;;8.73;5.57;;;;;;;;;;5004598;28;20038;-74
2023/01/23 12:12:39;;;;;;;10.32;8.05;;;;;;;;;;5005814;28;20038;-73
2023/01/23 12:15:11;;;;;;;13.00;10.15;;;;;;;;;;5004432;28;20051;-74
2023/01/23 12:17:55;;;;;;;7.97;6.35;;;;;;;;;;5004702;28;20026;-73
2023/01/23 12:20:26;;;;;;;5.65;4.88;;;;;;;;;;5004788;28;20034;-74
2023/01/23 12:23:10;;;;;;;4.32;3.95;;;;;;;;;;5003286;28;20105;-73
2023/01/23 12:25:35;;;;;;;4.10;3.53;;;;;;;;;;5004606;28;20034;-73
2023/01/23 12:28:16;;;;;;;4.18;3.63;;;;;;;;;;5004433;28;20100;-74
2023/01/23 12:30:41;;;;;;;7.38;5.68;;;;;;;;;;5003906;28;20445;-73
2023/01/23 12:33:32;;;;;;;6.65;5.60;;;;;;;;;;5005799;28;20048;-74
2023/01/23 12:36:16;;;;;;;4.45;2.90;;;;;;;;;;5002061;28;20042;-75
2023/01/23 12:39:00;;;;;;;4.82;4.03;;;;;;;;;;5004630;28;20104;-76
2023/01/23 12:41:33;;;;;;;5.07;3.67;;;;;;;;;;5004145;28;20029;-74
2023/01/23 12:44:02;;;;;;;5.32;4.57;;;;;;;;;;5004658;28;20029;-74
2023/01/23 12:46:42;;;;;;;8.20;7.20;;;;;;;;;;5003727;28;20139;-74
2023/01/23 12:49:33;;;;;;;5.80;4.32;;;;;;;;;;5005073;28;20025;-75
2023/01/23 12:52:01;;;;;;;1.42;1.33;;;;;;;;;;5002653;28;20038;-76
2023/01/23 12:54:30;;;;;;;2.65;2.45;;;;;;;;;;5004368;28;20021;-73
2023/01/23 12:56:56;;;;;;;2.03;1.83;;;;;;;;;;5002511;28;20026;-73
2023/01/23 12:59:41;;;;;;;4.10;1.90;;;;;;;;;;5002361;28;20109;-75
2023/01/23 13:02:15;;;;;;;2.15;1.92;;;;;;;;;;5003796;28;20038;-73
2023/01/23 13:04:46;;;;;;;2.45;2.25;;;;;;;;;;5005087;28;20116;-73
2023/01/23 13:07:31;;;;;;;2.05;1.85;;;;;;;;;;5004109;28;20028;-74
2023/01/23 13:10:15;;;;;;;7.93;6.95;;;;;;;;;;5002874;28;20026;-73
2023/01/23 13:12:40;;;;;;;9.02;7.32;;;;;;;;;;5003936;28;20037;-72
2023/01/23 13:15:23;;;;;;;4.72;4.03;;;;;;;;;;5004499;28;20033;-74
2023/01/23 13:17:50;;;;;;;5.85;5.22;;;;;;;;;;5002424;28;20022;-74
2023/01/23 13:23:29;;;;;;;4.78;4.18;;;;;;;;;;5004604;28;20044;-73
2023/01/23 13:26:13;;;;;;;6.47;5.35;;;;;;;;;;5002734;28;20042;-73
2023/01/23 13:28:44;;;;;;;4.65;4.18;;;;;;;;;;5004852;28;20030;-73
2023/01/23 13:31:28;;;;;;;3.28;2.50;;;;;;;;;;5005043;28;20030;-73
2023/01/23 13:33:54;;;;;;;2.67;2.30;;;;;;;;;;5002983;28;20160;-73
2023/01/23 13:36:23;;;;;;;3.33;2.88;;;;;;;;;;5004733;28;20590;-73
2023/01/23 13:38:49;;;;;;;;;;;;;;;;;;5007551;28;20022;-75
2023/01/23 13:41:17;;;;;;;2.30;2.10;;;;;;;;;;5006985;28;19967;-73
2023/01/23 13:43:54;;;;;;;2.88;2.50;;;;;;;;;;5008164;28;20063;-74
2023/01/23 13:46:19;;;;;;;2.85;2.65;;;;;;;;;;5006965;28;20170;-73
2023/01/23 13:51:41;;;;;;;2.10;1.90;;;;;;;;;;5008137;28;20091;-73
2023/01/23 13:56:56;;;;;;;2.40;2.20;;;;;;;;;;5006545;28;20123;-75
2023/01/23 13:59:34;;;;;;;2.28;1.38;;;;;;;;;;5007645;28;20076;-74
2023/01/23 14:05:12;;;;;;;2.30;2.10;;;;;;;;;;5007278;28;20224;-78
2023/01/23 14:07:43;;;;;;;1.60;1.50;;;;;;;;;;5007314;28;20041;-73
2023/01/23 14:10:23;;;;;;;2.97;2.72;;;;;;;;;;5006074;28;20033;-72
2023/01/23 14:12:49;;;;;;;1.88;1.52;;;;;;;;;;5006798;28;20034;-74
2023/01/23 14:18:21;;;;;;;5.63;4.85;;;;;;;;;;5004225;28;20111;-73
2023/01/23 14:20:46;;;;;;;15.60;12.38;;;;;;;;;;5007001;28;20072;-73
2023/01/23 14:23:26;;;;;;;25.48;20.85;;;;;;;;;;5004223;28;20124;-75
2023/01/23 14:25:51;;;;;;;5.05;4.28;;;;;;;;;;4998713;28;20029;-72
2023/01/23 14:28:17;;;;;;;59.88;39.53;;;;;;;;;;5000829;28;20044;-72
2023/01/23 14:30:56;;;;;;;17.25;12.43;;;;;;;;;;5005839;28;20032;-70
2023/01/23 14:33:21;;;;;;;25.50;18.73;;;;;;;;;;5007181;28;20092;-71
2023/01/23 14:35:47;;;;;;;15.20;12.75;;;;;;;;;;5005390;28;20480;-72
2023/01/23 14:38:17;;;;;;;7.45;6.47;;;;;;;;;;5006019;28;20096;-73
2023/01/23 14:40:42;;;;;;;10.15;7.38;;;;;;;;;;5004440;28;20088;-72
2023/01/23 14:43:08;;;;;;;14.95;12.88;;;;;;;;;;5004965;28;20061;-72
2023/01/23 14:45:34;;;;;;;10.52;7.65;;;;;;;;;;5006403;28;20379;-76
2023/01/23 14:48:01;;;;;;;38.40;30.20;;;;;;;;;;5003948;28;20112;-73